createdAt,value
2019-01-30T00:04:50.029Z,98629.87
2019-01-30T00:09:52.589Z,98619.39
2019-01-30T00:14:54.970Z,98605.59
2019-01-30T00:19:57.445Z,98599.16
2019-01-30T00:24:59.927Z,98598.05
2019-01-30T00:30:04.221Z,98586.41
2019-01-30T00:35:04.864Z,98579.34
2019-01-30T00:40:10.056Z,98567.61
2019-01-30T00:45:15.475Z,98561.75
2019-01-30T00:50:17.943Z,98556.67
2019-01-30T00:55:20.446Z,98550.81
2019-01-30T01:00:26.062Z,98545.55
2019-01-30T01:05:28.671Z,98538.17
2019-01-30T01:10:31.150Z,98521.39
2019-01-30T01:15:33.628Z,98507.06
2019-01-30T01:20:36.110Z,98509.45
2019-01-30T01:25:38.618Z,98518.14
2019-01-30T01:30:41.268Z,98524.92
2019-01-30T01:35:43.746Z,98513.84
2019-01-30T01:40:46.225Z,98500.56
2019-01-30T01:45:48.707Z,98490.39
2019-01-30T01:50:51.217Z,98469.86
2019-01-30T01:55:53.700Z,98461.34
2019-01-30T02:00:56.188Z,98458.50
2019-01-30T02:05:58.679Z,98438.44
2019-01-30T02:11:01.151Z,98418.09
2019-01-30T02:16:03.645Z,98415.00
2019-01-30T02:21:06.111Z,98394.38
2019-01-30T02:26:08.589Z,98383.83
2019-01-30T02:31:11.076Z,98373.28
2019-01-30T02:36:13.564Z,98365.73
2019-01-30T02:41:16.046Z,98357.06
2019-01-30T02:46:18.539Z,98363.05
2019-01-30T02:51:21.013Z,98354.02
2019-01-30T02:56:23.489Z,98349.45
2019-01-30T03:01:25.971Z,98344.42
2019-01-30T03:06:28.458Z,98332.39
2019-01-30T03:11:30.936Z,98337.30
2019-01-30T03:16:33.485Z,98321.24
2019-01-30T03:21:36.015Z,98304.58
2019-01-30T03:26:38.498Z,98299.02
2019-01-30T03:31:40.996Z,98303.13
2019-01-30T03:36:43.449Z,98319.22
2019-01-30T03:41:45.925Z,98312.25
2019-01-30T03:46:48.455Z,98314.75
2019-01-30T03:51:50.930Z,98312.02
2019-01-30T03:56:53.399Z,98321.76
2019-01-30T04:01:55.885Z,98308.50
2019-01-30T04:06:58.370Z,98316.13
2019-01-30T04:12:00.842Z,98323.02
2019-01-30T04:17:03.426Z,98318.38
2019-01-30T04:22:05.818Z,98314.98
2019-01-30T04:27:08.290Z,98318.40
2019-01-30T04:32:10.977Z,98311.06
2019-01-30T04:37:13.460Z,98296.31
2019-01-30T04:42:15.954Z,98274.08
2019-01-30T04:47:18.422Z,98275.20
2019-01-30T04:52:20.908Z,98273.36
2019-01-30T04:57:23.400Z,98271.66
2019-01-30T05:02:26.021Z,98274.81
2019-01-30T05:07:28.518Z,98272.50
2019-01-30T05:12:30.997Z,98259.05
2019-01-30T05:17:33.491Z,98242.67
2019-01-30T05:22:35.956Z,98229.52
2019-01-30T05:27:38.426Z,98232.64
2019-01-30T05:32:40.896Z,98214.61
2019-01-30T05:37:43.367Z,98203.30
2019-01-30T05:42:45.837Z,98213.33
2019-01-30T05:47:48.312Z,98204.42
2019-01-30T05:52:50.793Z,98216.13
2019-01-30T05:57:53.352Z,98205.14
2019-01-30T06:02:55.821Z,98185.36
2019-01-30T06:07:58.322Z,98195.77
2019-01-30T06:13:00.812Z,98174.59
2019-01-30T06:18:03.287Z,98177.84
2019-01-30T06:23:05.772Z,98169.66
2019-01-30T06:28:08.244Z,98162.16
2019-01-30T06:33:10.719Z,98177.28
2019-01-30T06:38:13.191Z,98174.72
2019-01-30T06:43:15.676Z,98186.89
2019-01-30T06:48:18.161Z,98182.06
2019-01-30T06:53:20.637Z,98164.27
2019-01-30T06:58:23.171Z,98186.70
2019-01-30T07:03:25.621Z,98185.18
2019-01-30T07:08:28.100Z,98204.86
2019-01-30T07:13:30.565Z,98195.05
2019-01-30T07:18:33.036Z,98198.70
2019-01-30T07:23:35.511Z,98206.77
2019-01-30T07:28:37.976Z,98207.53
2019-01-30T07:33:40.451Z,98214.89
2019-01-30T07:38:43.195Z,98221.97
2019-01-30T07:43:45.674Z,98229.92
2019-01-30T07:48:48.163Z,98223.05
2019-01-30T07:53:50.635Z,98231.63
2019-01-30T07:58:53.127Z,98238.35
2019-01-30T08:03:55.605Z,98246.23
2019-01-30T08:08:58.090Z,98257.85
2019-01-30T08:14:01.934Z,98257.58
2019-01-30T08:19:03.053Z,98266.77
2019-01-30T08:24:05.597Z,98271.44
2019-01-30T08:29:08.414Z,98271.66
2019-01-30T08:34:10.502Z,98276.00
2019-01-30T08:39:12.981Z,98284.45
2019-01-30T08:44:15.451Z,98274.97
2019-01-30T08:49:17.946Z,98280.48
2019-01-30T08:54:20.453Z,98271.56
2019-01-30T08:59:22.916Z,98268.02
2019-01-30T09:04:25.376Z,98265.73
2019-01-30T09:09:27.865Z,98264.75
2019-01-30T09:14:30.342Z,98272.89
2019-01-30T09:19:32.802Z,98270.80
2019-01-30T09:24:35.276Z,98270.45
2019-01-30T09:29:37.744Z,98271.25
2019-01-30T09:34:40.240Z,98271.91
2019-01-30T09:39:42.689Z,98276.00
2019-01-30T09:44:45.183Z,98277.63
2019-01-30T09:49:47.655Z,98285.78
2019-01-30T09:54:50.172Z,98289.31
2019-01-30T09:59:52.611Z,98291.22
2019-01-30T10:04:55.083Z,98294.52
2019-01-30T10:09:57.559Z,98301.31
2019-01-30T10:15:00.031Z,98307.73
2019-01-30T10:20:02.523Z,98309.83
2019-01-30T10:25:05.059Z,98315.65
2019-01-30T10:30:16.374Z,98307.52
2019-01-30T10:35:18.848Z,98312.19
2019-01-30T10:40:21.311Z,98312.27
2019-01-30T10:45:23.765Z,98307.03
2019-01-30T10:50:29.096Z,98313.06
2019-01-30T10:55:31.630Z,98321.58
2019-01-30T11:00:36.935Z,98316.72
2019-01-30T11:05:39.416Z,98313.42
2019-01-30T11:10:41.877Z,98321.59
2019-01-30T11:15:44.353Z,98321.00
2019-01-30T11:20:46.838Z,98315.60
2019-01-30T11:25:49.300Z,98322.80
2019-01-30T11:30:51.781Z,98315.23
2019-01-30T11:35:54.261Z,98322.98
2019-01-30T11:40:56.779Z,98329.46
2019-01-30T11:45:59.285Z,98327.22
2019-01-30T11:51:01.757Z,98341.17
2019-01-30T11:56:04.242Z,98347.00
2019-01-30T12:01:06.712Z,98342.59
2019-01-30T12:06:09.190Z,98350.41
2019-01-30T12:11:26.228Z,98358.34
2019-01-30T12:16:28.722Z,98357.73
2019-01-30T12:21:31.201Z,98373.14
2019-01-30T12:26:33.693Z,98377.36
2019-01-30T12:31:36.166Z,98370.39
2019-01-30T12:36:38.676Z,98383.70
2019-01-30T12:41:41.150Z,98386.11
2019-01-30T12:46:43.649Z,98393.40
2019-01-30T12:51:46.126Z,98411.33
2019-01-30T12:56:48.617Z,98415.28
2019-01-30T13:01:51.125Z,98414.97
2019-01-30T13:06:53.593Z,98430.66
2019-01-30T13:11:56.105Z,98424.44
2019-01-30T13:16:58.582Z,98428.55
2019-01-30T13:22:01.076Z,98434.59
2019-01-30T13:27:03.578Z,98419.23
2019-01-30T13:32:06.067Z,98433.23
2019-01-30T13:37:08.572Z,98450.71
2019-01-30T13:42:11.054Z,98451.66
2019-01-30T13:47:13.545Z,98453.61
2019-01-30T13:52:16.307Z,98466.22
2019-01-30T13:57:18.794Z,98467.77
2019-01-30T14:02:21.384Z,98476.89
2019-01-30T14:07:26.669Z,98487.78
2019-01-30T14:12:29.176Z,98492.20
2019-01-30T14:17:32.493Z,98509.52
2019-01-30T14:22:34.719Z,98520.17
2019-01-30T14:27:37.196Z,98535.70
2019-01-30T14:32:39.780Z,98545.59
2019-01-30T14:37:42.179Z,98553.36
2019-01-30T14:42:44.706Z,98563.27
2019-01-30T14:47:47.209Z,98576.27
2019-01-30T14:52:49.708Z,98580.94
2019-01-30T14:57:52.154Z,98588.52
2019-01-30T15:02:54.634Z,98592.80
2019-01-30T15:07:57.163Z,98595.95
2019-01-30T15:12:59.700Z,98608.92
2019-01-30T15:18:02.276Z,98624.62
2019-01-30T15:23:04.721Z,98622.77
2019-01-30T15:28:07.266Z,98643.60
2019-01-30T15:33:09.722Z,98659.52
2019-01-30T15:38:12.233Z,98655.39
2019-01-30T15:43:14.719Z,98656.39
2019-01-30T15:48:17.237Z,98673.88
2019-01-30T15:53:19.749Z,98679.80
2019-01-30T15:58:22.248Z,98689.75
2019-01-30T16:03:25.163Z,98694.81
2019-01-30T16:08:27.647Z,98704.27
2019-01-30T16:13:30.244Z,98705.92
2019-01-30T16:18:32.754Z,98716.19
2019-01-30T16:23:35.243Z,98724.02
2019-01-30T16:28:37.768Z,98735.96
2019-01-30T16:33:40.253Z,98741.47
2019-01-30T16:38:42.740Z,98745.73
2019-01-30T16:43:45.223Z,98747.00
2019-01-30T16:48:47.726Z,98760.13
2019-01-30T16:53:50.205Z,98768.81
2019-01-30T16:58:52.686Z,98783.31
2019-01-30T17:03:55.241Z,98790.00
2019-01-30T17:08:57.739Z,98790.55
2019-01-30T17:14:00.219Z,98805.81
2019-01-30T17:19:02.737Z,98819.13
2019-01-30T17:24:05.228Z,98821.24
2019-01-30T17:29:07.731Z,98830.69
2019-01-30T17:34:10.205Z,98832.07
2019-01-30T17:39:12.680Z,98840.58
2019-01-30T17:44:15.292Z,98843.86
2019-01-30T17:49:19.204Z,98858.87
2019-01-30T17:54:20.332Z,98862.89
2019-01-30T17:59:22.859Z,98881.20
2019-01-30T18:04:25.386Z,98887.60
2019-01-30T18:09:31.796Z,98893.48
2019-01-30T18:14:34.296Z,98901.56
2019-01-30T18:19:36.790Z,98898.55
2019-01-30T18:24:39.312Z,98904.75
2019-01-30T18:29:41.983Z,98922.35
2019-01-30T18:34:44.471Z,98919.48
2019-01-30T18:39:49.602Z,98925.53
2019-01-30T18:44:49.488Z,98926.77
2019-01-30T18:49:52.021Z,98931.70
2019-01-30T18:54:54.505Z,98927.16
2019-01-30T18:59:57.004Z,98935.13
2019-01-30T19:04:59.518Z,98936.34
2019-01-30T19:10:02.042Z,98932.88
2019-01-30T19:15:04.521Z,98936.11
2019-01-30T19:20:09.979Z,98941.64
2019-01-30T19:25:12.660Z,98932.61
2019-01-30T19:30:15.196Z,98940.57
2019-01-30T19:35:17.700Z,98948.89
2019-01-30T19:40:20.205Z,98951.80
2019-01-30T19:45:25.676Z,98959.85
2019-01-30T19:50:28.183Z,98962.44
2019-01-30T19:55:30.705Z,98962.23
2019-01-30T20:00:36.199Z,98964.91
2019-01-30T20:05:38.634Z,98966.06
2019-01-30T20:10:41.141Z,98961.44
2019-01-30T20:15:43.659Z,98959.50
2019-01-30T20:20:46.740Z,98963.19
2019-01-30T20:25:49.238Z,98963.31
2019-01-30T20:30:51.752Z,98961.01
2019-01-30T20:35:54.219Z,98960.73
2019-01-30T20:40:56.713Z,98962.48
2019-01-30T20:45:59.235Z,98971.87
2019-01-30T20:51:03.125Z,98970.81
2019-01-30T20:56:05.696Z,98970.61
2019-01-30T21:01:08.180Z,98972.12
2019-01-30T21:06:10.688Z,98974.38
2019-01-30T21:11:13.163Z,98978.80
2019-01-30T21:16:15.646Z,98969.44
2019-01-30T21:21:18.159Z,98964.66
2019-01-30T21:26:20.657Z,98969.71
2019-01-30T21:31:23.155Z,98967.73
2019-01-30T21:36:25.746Z,98964.02
2019-01-30T21:41:28.259Z,98967.52
2019-01-30T21:46:30.770Z,98963.87
2019-01-30T21:51:33.307Z,98966.41
2019-01-30T21:56:35.799Z,98961.48
2019-01-30T22:01:38.295Z,98957.37
2019-01-30T22:06:40.801Z,98962.61
2019-01-30T22:11:43.676Z,98962.62
2019-01-30T22:16:46.160Z,98962.84
2019-01-30T22:21:48.665Z,98969.37
2019-01-30T22:26:51.147Z,98973.45
2019-01-30T22:31:53.634Z,98973.41
2019-01-30T22:36:56.140Z,98968.08
2019-01-30T22:41:58.626Z,98972.54
2019-01-30T22:47:01.106Z,98965.08
2019-01-30T22:52:03.597Z,98961.00
2019-01-30T22:57:06.084Z,98958.30
2019-01-30T23:02:08.563Z,98958.16
2019-01-30T23:07:13.953Z,98956.37
2019-01-30T23:12:16.404Z,98958.84
2019-01-30T23:17:24.640Z,98950.96
2019-01-30T23:22:55.132Z,98955.14
2019-01-30T23:28:00.662Z,98949.21
2019-01-30T23:33:30.731Z,98945.69
2019-01-30T23:38:45.451Z,98930.04
2019-01-30T23:44:06.384Z,98921.39
2019-01-30T23:49:11.502Z,98912.53
2019-01-30T23:54:16.879Z,98912.44
2019-01-30T23:59:28.213Z,98912.98
